Etusivu
METAR-TAF:

METAR-TAF

Lentoasemat :

Huánuco, Peru

Leveyspiiri: 09-54S, Pituuspiiri: 075-45W, korkeus merenpinnasta: 1859 m

Tämänhetkinen sää

Tämä raportti tehtiin 2 tuntia ja 57 minuuttia sitten, kello 22.00 UTC
Tuuli 15 kn koillisesta
Lämpötila 25°C
Kosteus 41%
Ilmanpaine 1020 hPa
Näkyvyys 10 km tai enemmän
Muutamia pilviä 4000 ft:n korkeudessa

METAR: SPNC 292200Z 05015KT 9999 FEW040 25/11 Q1020 RMK TX29.2 PP000

Aika: 19:57 (00:57 UTC)

Sääennuste

Tämä raportti tehtiin 7 tuntia ja 57 minuuttia sitten, kello 17.00 UTC
Ennuste voimassa 28. päivästä klo 18 UTC - 29. päivään klo 18 UTC
Tuuli 15 kn idästä/koillisesta
Näkyvyys 10 km tai enemmän
Muutamia pilviä 4000 ft:n korkeudessa
Tulossa
29. päivästä klo 10 UTC - 29. päivään klo 13 UTC
Tuuli 5 kn koillisesta
Tulossa
29. päivästä klo 15 UTC - 29. päivään klo 17 UTC
Tuuli 16 kn idästä/koillisesta

TAF: SPNC 281700Z 2818/2918 06015KT 9999 FEW040 TX27/2819Z TN17/2911Z BECMG 2910/2913 05005KT BECMG 2915/2917 07016KT

Säähavainnot ja -ennusteet yli 4000 lentoasemalta (METAR- ja TAF-raportit).

Käytössä olevat sääasemat on merkitty karttaan keltaisilla ja punaisilla pisteillä.

Aseta hiiri pisteen päälle nähdäksesi sääaseman nimen.

Klikkaa sitten nähdäksesi säähavainnot ja -ennusteet.

Kartan vaihtaminen: klikkaa mustalla rastilla varustettuja vihreitä pisteitä, niin voit zoomata sisään; viivalla varustettua vihreää pistettä, niin voit zoomata ulos tai vihreitä nuolia, niin pääset viereisille kartoille.


METAR-TAF: